• Join FlightAware (Why Join?)
  • Login
  • US Flag 
10:21PM EDT


 

Airport Tracker/Info


-or-


 

Live Flight TrackerFlight Track Log ✈ BLS386 ✈ 25-Oct-2013 ✈ CYSB - CYTS

Flight Track Log - Related Links

Times and Time Zones

All times are in EDT time to prevent confusion due to time zone crossing. See the BLS386 flight status page for this flight to view local times or setup timezone preferences in your user account.

Time Position Orientation Groundspeed Altitude Reporting Facility
EDT Latitude Longitude Course Direction KTS MPH feet Rate Location/Type
01:52PM 46.5833 -80.8000 348° North 160 184 3,500  Level Toronto Center
01:53PM 46.6167 -80.8500 314° West 150 173 6,000 2,280 Climbing Toronto Center
01:54PM 46.6500 -80.8667 341° North 170 196 8,100 1,800 Climbing Toronto Center
01:55PM 46.7000 -80.8667 360° North 190 219 9,700 1,560 Climbing Toronto Center
01:56PM 46.7667 -80.9000 341° North 210 242 11,300 1,140 Climbing Toronto Center
01:57PM 46.8333 -80.9000 360° North 230 265 12,000 300 Climbing Toronto Center
01:58PM 47.0344 -80.9153 348° North  Level FlightAware Approximate
01:58PM 46.9000 -80.9000 360° North 250 288 11,900  Level Toronto Center
01:59PM 46.9500 -80.9333 336° Northwest 270 311 11,900  Level Toronto Center
02:00PM 47.0333 -80.9500 352° North 270 311 11,900  Level Toronto Center
02:01PM 47.1000 -80.9500 360° North 270 311 12,000  Climbing Toronto Center
02:02PM 47.1833 -80.9833 345° North 270 311 12,000  Level Toronto Center
02:03PM 47.2500 -81.0000 350° North 270 311 12,000  Level Toronto Center
02:04PM 47.3333 -81.0333 345° North 270 311 12,000  Level Toronto Center
02:05PM 47.4167 -81.0667 345° North 280 322 12,000  Level Toronto Center
02:06PM 47.4833 -81.0833 350° North 280 322 12,000  Level Toronto Center
02:07PM 47.5667 -81.1167 345° North 280 322 12,000  Level Toronto Center
02:08PM 47.6333 -81.1333 350° North 280 322 12,100 -60 Climbing Toronto Center
02:09PM 47.7167 -81.1500 352° North 280 322 11,900 -120 Descending Toronto Center
02:10PM 47.7833 -81.1667 350° North 280 322 11,900  Level Toronto Center
02:13PM 47.8629 -81.1588 349° North  Level FlightAware Approximate
02:20PM 48.2816 -81.2870 351° North  Level FlightAware Approximate
02:21PM 48.3415 -81.3041 342° North  Level FlightAware Approximate
02:22PM 48.4010 -81.3235 352° North  Level FlightAware Approximate
02:23PM 48.4612 -81.3378 345° North  Level FlightAware Approximate
02:24PM 48.5203 -81.3614 345° North  Level FlightAware Approximate
02:25PM 48.5667 -81.3667 North  Level FlightAware Approximate
02:26PM 48.5697 -81.3767 North  Level Estimated